createdAt,value
2023-03-15T00:00:56.425Z,3.79
2023-03-15T00:02:00.876Z,3.80
2023-03-15T00:03:04.252Z,3.80
2023-03-15T00:04:07.878Z,3.80
2023-03-15T00:05:15.351Z,3.80
2023-03-15T00:06:18.308Z,3.80
2023-03-15T00:07:26.058Z,3.80
2023-03-15T00:08:29.327Z,3.80
2023-03-15T00:09:32.185Z,3.79
2023-03-15T00:10:35.072Z,3.80
2023-03-15T00:11:38.082Z,3.80
2023-03-15T00:12:42.810Z,3.80
2023-03-15T00:13:46.393Z,3.80
2023-03-15T00:14:50.667Z,3.80
2023-03-15T00:15:58.084Z,3.80
2023-03-15T00:17:01.013Z,3.81
2023-03-15T00:18:04.404Z,3.81
2023-03-15T00:19:07.476Z,3.81
2023-03-15T00:20:12.280Z,3.82
2023-03-15T00:21:15.809Z,3.82
2023-03-15T00:22:18.605Z,3.82
2023-03-15T00:23:22.102Z,3.82
2023-03-15T00:24:25.308Z,3.82
2023-03-15T00:25:28.665Z,3.82
2023-03-15T00:26:31.573Z,3.83
2023-03-15T00:27:34.488Z,3.81
2023-03-15T00:28:37.436Z,3.82
2023-03-15T00:29:40.503Z,3.83
2023-03-15T00:30:44.229Z,3.82
2023-03-15T00:31:47.085Z,3.81
2023-03-15T00:32:53.917Z,3.81
2023-03-15T00:33:56.851Z,3.81
2023-03-15T00:34:59.691Z,3.81
2023-03-15T00:36:07.216Z,3.80
2023-03-15T00:37:11.552Z,3.80
2023-03-15T00:38:14.557Z,3.79
2023-03-15T00:39:18.641Z,3.79
2023-03-15T00:40:22.991Z,3.80
2023-03-15T00:41:25.932Z,3.80
2023-03-15T00:42:28.962Z,3.80
2023-03-15T00:43:31.890Z,3.81
2023-03-15T00:44:34.873Z,3.80
2023-03-15T00:45:37.878Z,3.80
2023-03-15T00:46:40.824Z,3.80
2023-03-15T00:47:43.851Z,3.80
2023-03-15T00:48:51.083Z,3.80
2023-03-15T00:49:54.539Z,3.80
2023-03-15T00:51:10.992Z,3.79
2023-03-15T00:52:13.914Z,3.79
2023-03-15T00:53:16.829Z,3.79
2023-03-15T00:54:19.650Z,3.78
2023-03-15T00:55:23.417Z,3.78
2023-03-15T00:56:28.154Z,3.78
2023-03-15T00:57:34.463Z,3.77
2023-03-15T00:58:37.803Z,3.77
2023-03-15T00:59:40.679Z,3.77
2023-03-15T01:00:43.608Z,3.76
2023-03-15T01:01:46.510Z,3.76
2023-03-15T01:02:49.452Z,3.77
2023-03-15T01:03:52.808Z,3.77
2023-03-15T01:04:55.685Z,3.77
2023-03-15T01:05:58.524Z,3.77
2023-03-15T01:07:01.425Z,3.76
2023-03-15T01:08:04.610Z,3.76
2023-03-15T01:09:07.476Z,3.75
2023-03-15T01:10:10.971Z,3.76
2023-03-15T01:11:17.262Z,3.76
2023-03-15T01:12:20.212Z,3.75
2023-03-15T01:13:24.220Z,3.76
2023-03-15T01:14:27.172Z,3.74
2023-03-15T01:15:30.053Z,3.75
2023-03-15T01:16:35.078Z,3.74
2023-03-15T01:17:38.611Z,3.73
2023-03-15T01:18:42.383Z,3.73
2023-03-15T01:19:45.461Z,3.73
2023-03-15T01:20:48.613Z,3.73
2023-03-15T01:21:51.505Z,3.72
2023-03-15T01:22:54.377Z,3.72
2023-03-15T01:23:57.230Z,3.72
2023-03-15T01:25:00.122Z,3.70
2023-03-15T01:26:05.290Z,3.69
2023-03-15T01:27:08.365Z,3.68
2023-03-15T01:28:11.315Z,3.68
2023-03-15T01:29:15.045Z,3.67
2023-03-15T01:30:18.111Z,3.66
2023-03-15T01:31:42.983Z,3.64
2023-03-15T01:32:46.246Z,3.64
2023-03-15T01:33:49.647Z,3.64
2023-03-15T01:34:52.495Z,3.64
2023-03-15T01:36:07.314Z,3.65
2023-03-15T01:37:14.625Z,3.64
2023-03-15T01:38:19.917Z,3.64
2023-03-15T01:39:22.773Z,3.63
2023-03-15T01:40:25.742Z,3.64
2023-03-15T01:41:28.938Z,3.63
2023-03-15T01:42:32.599Z,3.63
2023-03-15T01:43:36.287Z,3.62
2023-03-15T01:44:54.121Z,3.62
2023-03-15T01:45:59.642Z,3.62
2023-03-15T01:47:03.611Z,3.60
2023-03-15T01:48:09.345Z,3.60
2023-03-15T01:49:15.184Z,3.60
2023-03-15T01:50:20.022Z,3.60
2023-03-15T01:51:35.325Z,3.59
2023-03-15T01:52:41.483Z,3.59
2023-03-15T01:54:07.723Z,3.59
2023-03-15T01:55:15.313Z,3.58
2023-03-15T01:56:33.312Z,3.57
2023-03-15T01:57:41.703Z,3.57
2023-03-15T01:58:47.847Z,3.56
2023-03-15T02:00:02.143Z,3.55
2023-03-15T02:01:06.306Z,3.55
2023-03-15T02:02:14.684Z,3.55
2023-03-15T02:03:23.298Z,3.54
2023-03-15T02:04:47.298Z,3.54
2023-03-15T02:05:59.259Z,3.54
2023-03-15T02:07:18.758Z,3.53
2023-03-15T02:08:25.418Z,3.52
2023-03-15T02:09:41.950Z,3.51
2023-03-15T02:10:48.123Z,3.50
2023-03-15T02:11:51.726Z,3.51
2023-03-15T02:12:57.282Z,3.50
2023-03-15T02:14:02.404Z,3.49
2023-03-15T02:15:07.913Z,3.49
2023-03-15T02:16:11.642Z,3.47
2023-03-15T02:17:25.264Z,3.46
2023-03-15T02:18:28.396Z,3.45
2023-03-15T02:19:46.019Z,3.45
2023-03-15T02:21:22.858Z,3.44
2023-03-15T02:23:05.618Z,3.42
2023-03-15T02:24:26.084Z,3.41
2023-03-15T02:25:46.936Z,3.41
2023-03-15T02:26:57.238Z,3.40
2023-03-15T02:28:03.454Z,3.39
2023-03-15T02:29:06.484Z,3.40
2023-03-15T02:30:11.807Z,3.39
2023-03-15T02:31:15.552Z,3.39
2023-03-15T02:32:18.447Z,3.40
2023-03-15T02:33:42.751Z,3.40
2023-03-15T02:34:45.702Z,3.40
2023-03-15T02:35:48.744Z,3.40
2023-03-15T02:36:54.984Z,3.40
2023-03-15T02:37:59.127Z,3.38
2023-03-15T02:39:12.798Z,3.38
2023-03-15T02:40:20.275Z,3.38
2023-03-15T02:41:42.650Z,3.38
2023-03-15T02:42:48.723Z,3.35
2023-03-15T02:43:55.309Z,3.34
2023-03-15T02:44:59.086Z,3.33
2023-03-15T02:46:04.257Z,3.32
2023-03-15T02:47:21.659Z,3.31
2023-03-15T02:48:24.997Z,3.30
2023-03-15T02:49:31.421Z,3.29
2023-03-15T02:50:34.350Z,3.27
2023-03-15T02:51:37.377Z,3.28
2023-03-15T02:52:40.533Z,3.28
2023-03-15T02:53:43.401Z,3.28
2023-03-15T02:54:46.338Z,3.27
2023-03-15T02:55:49.483Z,3.26
2023-03-15T02:56:53.384Z,3.26
2023-03-15T02:57:56.453Z,3.26
2023-03-15T02:58:59.933Z,3.25
2023-03-15T03:00:13.330Z,3.25
2023-03-15T03:01:18.502Z,3.24
2023-03-15T03:02:22.046Z,3.23
2023-03-15T03:03:25.069Z,3.23
2023-03-15T03:04:28.567Z,3.22
2023-03-15T03:05:31.516Z,3.21
2023-03-15T03:06:34.482Z,3.21
2023-03-15T03:07:38.239Z,3.20
2023-03-15T03:08:47.444Z,3.20
2023-03-15T03:09:51.822Z,3.20
2023-03-15T03:10:55.386Z,3.18
2023-03-15T03:11:58.604Z,3.17
2023-03-15T03:13:02.017Z,3.16
2023-03-15T03:14:15.585Z,3.16
2023-03-15T03:15:19.492Z,3.15
2023-03-15T03:16:23.345Z,3.14
2023-03-15T03:17:26.390Z,3.12
2023-03-15T03:18:30.851Z,3.12
2023-03-15T03:19:33.845Z,3.11
2023-03-15T03:20:36.956Z,3.10
2023-03-15T03:21:43.419Z,3.09
2023-03-15T03:22:47.283Z,3.08
2023-03-15T03:23:50.162Z,3.08
2023-03-15T03:24:53.158Z,3.07
2023-03-15T03:25:57.970Z,3.05
2023-03-15T03:27:00.916Z,3.05
2023-03-15T03:28:05.831Z,3.03
2023-03-15T03:29:09.039Z,3.03
2023-03-15T03:30:14.244Z,3.02
2023-03-15T03:31:25.948Z,3.02
2023-03-15T03:32:29.568Z,3.03
2023-03-15T03:33:32.685Z,3.03
2023-03-15T03:34:36.656Z,3.03
2023-03-15T03:35:39.595Z,3.03
2023-03-15T03:36:43.890Z,3.03
2023-03-15T03:37:47.968Z,3.02
2023-03-15T03:38:54.781Z,3.01
2023-03-15T03:39:58.201Z,3.01
2023-03-15T03:41:01.806Z,3.00
2023-03-15T03:42:06.129Z,2.99
2023-03-15T03:43:09.909Z,2.99
2023-03-15T03:44:12.839Z,2.98
2023-03-15T03:45:16.078Z,2.97
2023-03-15T03:46:19.987Z,2.97
2023-03-15T03:47:25.760Z,2.96
2023-03-15T03:48:29.022Z,2.96
2023-03-15T03:49:32.129Z,2.96
2023-03-15T03:50:35.357Z,2.95
2023-03-15T03:51:38.669Z,2.95
2023-03-15T03:52:44.126Z,2.94
2023-03-15T03:53:51.497Z,2.94
2023-03-15T03:54:54.919Z,2.94
2023-03-15T03:55:57.857Z,2.94
2023-03-15T03:57:00.839Z,2.94
2023-03-15T03:58:07.370Z,2.94
2023-03-15T03:59:23.704Z,2.94
2023-03-15T04:00:32.018Z,2.94
2023-03-15T04:01:34.972Z,2.93
2023-03-15T04:02:38.181Z,2.94
2023-03-15T04:03:43.387Z,2.94
2023-03-15T04:04:50.628Z,2.94
2023-03-15T04:05:57.935Z,2.94
2023-03-15T04:07:01.126Z,2.94
2023-03-15T04:08:11.996Z,2.94
2023-03-15T04:09:16.695Z,2.94
2023-03-15T04:10:26.952Z,2.94
2023-03-15T04:11:30.217Z,2.95
2023-03-15T04:12:38.259Z,2.94
2023-03-15T04:13:41.481Z,2.93
2023-03-15T04:14:44.812Z,2.92
2023-03-15T04:15:48.876Z,2.92
2023-03-15T04:16:54.728Z,2.91
2023-03-15T04:17:58.754Z,2.89
2023-03-15T04:19:08.733Z,2.88
2023-03-15T04:20:13.141Z,2.87
2023-03-15T04:21:23.225Z,2.85
2023-03-15T04:22:29.924Z,2.84
2023-03-15T04:23:39.192Z,2.82
2023-03-15T04:24:58.420Z,2.78
2023-03-15T04:26:28.841Z,2.76
2023-03-15T04:28:03.055Z,2.73
2023-03-15T04:29:17.921Z,2.73
2023-03-15T04:30:31.893Z,2.72
2023-03-15T04:32:04.668Z,2.71
2023-03-15T04:33:32.914Z,2.70
2023-03-15T04:34:56.199Z,2.67
2023-03-15T04:36:18.964Z,2.64
2023-03-15T04:37:47.722Z,2.61
2023-03-15T04:39:13.613Z,2.59
2023-03-15T04:40:36.406Z,2.57
2023-03-15T04:42:09.352Z,2.53
2023-03-15T04:43:18.380Z,2.51
2023-03-15T04:44:49.526Z,2.50
2023-03-15T04:46:11.282Z,2.48
2023-03-15T04:47:33.122Z,2.46
2023-03-15T04:49:14.659Z,2.45
2023-03-15T04:50:40.810Z,2.44
2023-03-15T04:51:58.563Z,2.44
2023-03-15T04:53:14.632Z,2.42
2023-03-15T04:54:50.177Z,2.39
2023-03-15T04:56:09.730Z,2.37
2023-03-15T04:57:32.900Z,2.35
2023-03-15T04:58:48.531Z,2.33
2023-03-15T05:00:12.034Z,2.32
2023-03-15T05:01:30.677Z,2.31
2023-03-15T05:03:12.411Z,2.30
2023-03-15T05:04:32.407Z,2.28
2023-03-15T05:05:48.189Z,2.28
2023-03-15T05:07:15.549Z,2.26
2023-03-15T05:08:31.429Z,2.26
2023-03-15T05:09:48.122Z,2.25
2023-03-15T05:11:10.012Z,2.25
2023-03-15T05:12:34.846Z,2.24
2023-03-15T05:13:50.448Z,2.25
2023-03-15T05:14:54.360Z,2.26
2023-03-15T05:16:15.939Z,2.26
2023-03-15T05:17:37.442Z,2.26
2023-03-15T05:18:58.908Z,2.26
2023-03-15T05:20:34.694Z,2.24
2023-03-15T05:21:55.994Z,2.23
2023-03-15T05:23:15.946Z,2.23
2023-03-15T05:24:41.881Z,2.22
2023-03-15T05:26:00.920Z,2.22
2023-03-15T05:27:23.564Z,2.23
2023-03-15T05:28:45.464Z,2.22
2023-03-15T05:30:21.635Z,2.24
2023-03-15T05:31:43.355Z,2.24
2023-03-15T05:33:19.739Z,2.23
2023-03-15T05:34:55.338Z,2.24
2023-03-15T05:36:17.631Z,2.26
2023-03-15T05:37:43.747Z,2.27
2023-03-15T05:39:16.752Z,2.30
2023-03-15T05:40:38.360Z,2.32
2023-03-15T05:42:04.206Z,2.34
2023-03-15T05:43:27.548Z,2.35
2023-03-15T05:44:54.114Z,2.38
2023-03-15T05:45:59.879Z,2.41
2023-03-15T05:47:24.465Z,2.44
2023-03-15T05:48:42.871Z,2.46
2023-03-15T05:50:05.548Z,2.48
2023-03-15T05:51:30.083Z,2.51
2023-03-15T05:52:52.416Z,2.56
2023-03-15T05:54:07.920Z,2.58
2023-03-15T05:55:23.337Z,2.59
2023-03-15T05:56:46.336Z,2.62
2023-03-15T05:58:00.733Z,2.65
2023-03-15T05:59:29.157Z,2.68
2023-03-15T06:01:01.557Z,2.69
2023-03-15T06:02:21.635Z,2.70
2023-03-15T06:03:32.078Z,2.72
2023-03-15T06:04:39.658Z,2.74
2023-03-15T06:05:43.446Z,2.75
2023-03-15T06:06:51.438Z,2.76
2023-03-15T06:07:54.770Z,2.77
2023-03-15T06:08:57.816Z,2.78
2023-03-15T06:10:00.708Z,2.80
2023-03-15T06:11:03.714Z,2.81
2023-03-15T06:12:07.256Z,2.83
2023-03-15T06:13:10.307Z,2.83
2023-03-15T06:14:13.889Z,2.85
2023-03-15T06:15:28.006Z,2.85
2023-03-15T06:16:31.490Z,2.87
2023-03-15T06:17:35.154Z,2.88
2023-03-15T06:18:38.131Z,2.90
2023-03-15T06:19:41.035Z,2.95
2023-03-15T06:20:44.758Z,2.98
2023-03-15T06:21:49.988Z,3.01
2023-03-15T06:23:18.932Z,3.06
2023-03-15T06:24:22.944Z,3.08
2023-03-15T06:25:26.086Z,3.14
2023-03-15T06:26:28.957Z,3.18
2023-03-15T06:27:35.517Z,3.23
2023-03-15T06:28:38.720Z,3.26
2023-03-15T06:29:42.104Z,3.30
2023-03-15T06:30:45.806Z,3.34
2023-03-15T06:31:53.065Z,3.39
2023-03-15T06:33:04.336Z,3.46
2023-03-15T06:34:07.342Z,3.51
2023-03-15T06:35:10.444Z,3.55
2023-03-15T06:36:14.336Z,3.60
2023-03-15T06:37:28.843Z,3.65
2023-03-15T06:38:37.877Z,3.75
2023-03-15T06:39:42.155Z,3.90
2023-03-15T06:40:45.349Z,4.06
2023-03-15T06:41:48.265Z,4.16
2023-03-15T06:42:55.027Z,4.20
2023-03-15T06:43:58.082Z,4.19
2023-03-15T06:45:02.486Z,4.19
2023-03-15T06:46:06.000Z,4.18
2023-03-15T06:47:10.573Z,4.16
2023-03-15T06:48:15.191Z,4.15
2023-03-15T06:49:18.282Z,4.14
2023-03-15T06:50:21.244Z,4.12
2023-03-15T06:51:24.212Z,4.12
2023-03-15T06:52:27.311Z,4.15
2023-03-15T06:53:30.268Z,4.19
2023-03-15T06:54:33.303Z,4.21
2023-03-15T06:55:36.376Z,4.21
2023-03-15T06:56:39.855Z,4.17
2023-03-15T06:57:44.686Z,4.14
2023-03-15T06:58:47.851Z,4.11
2023-03-15T06:59:50.899Z,4.10
2023-03-15T07:00:53.758Z,4.10
2023-03-15T07:01:56.703Z,4.11
2023-03-15T07:02:59.702Z,4.09
2023-03-15T07:04:03.351Z,4.09
2023-03-15T07:05:07.044Z,4.08
2023-03-15T07:06:10.053Z,4.07
2023-03-15T07:07:13.607Z,4.06
2023-03-15T07:08:16.531Z,4.06
2023-03-15T07:09:19.966Z,4.06
2023-03-15T07:10:22.899Z,4.06
2023-03-15T07:11:25.750Z,4.06
2023-03-15T07:12:28.814Z,4.07
2023-03-15T07:13:31.722Z,4.05
2023-03-15T07:14:34.962Z,4.03
2023-03-15T07:15:37.984Z,4.01
2023-03-15T07:16:40.984Z,3.99
2023-03-15T07:17:43.857Z,4.00
2023-03-15T07:18:46.730Z,4.00
2023-03-15T07:19:56.304Z,3.98
2023-03-15T07:21:01.585Z,3.96
2023-03-15T07:22:04.657Z,3.95
2023-03-15T07:23:07.651Z,3.94
2023-03-15T07:24:10.580Z,3.93
2023-03-15T07:25:13.956Z,3.93
2023-03-15T07:26:16.936Z,3.93
2023-03-15T07:27:19.807Z,3.94
2023-03-15T07:28:25.074Z,3.93
2023-03-15T07:29:27.928Z,3.93
2023-03-15T07:30:30.880Z,3.92
2023-03-15T07:31:33.732Z,3.90
2023-03-15T07:32:36.725Z,3.89
2023-03-15T07:33:39.887Z,3.90
2023-03-15T07:34:43.030Z,3.90
2023-03-15T07:35:46.027Z,3.94
2023-03-15T07:36:48.929Z,3.98
2023-03-15T07:37:51.883Z,4.01
2023-03-15T07:38:54.986Z,4.00
2023-03-15T07:40:00.312Z,4.00
2023-03-15T07:41:05.992Z,4.01
2023-03-15T07:42:09.233Z,4.01
2023-03-15T07:43:19.525Z,4.01
2023-03-15T07:44:25.857Z,4.01
2023-03-15T07:45:28.715Z,4.03
2023-03-15T07:46:31.811Z,4.05
2023-03-15T07:47:34.841Z,4.05
2023-03-15T07:48:37.951Z,4.06
2023-03-15T07:49:41.039Z,4.08
2023-03-15T07:50:45.538Z,4.08
2023-03-15T07:51:48.553Z,4.09
2023-03-15T07:52:51.548Z,4.09
2023-03-15T07:53:54.566Z,4.09
2023-03-15T07:54:57.756Z,4.13
2023-03-15T07:56:01.369Z,4.17
2023-03-15T07:57:04.657Z,4.20
2023-03-15T07:58:08.043Z,4.23
2023-03-15T07:59:11.130Z,4.28
2023-03-15T08:00:14.608Z,4.33
2023-03-15T08:01:17.478Z,4.39
2023-03-15T08:02:20.795Z,4.42
2023-03-15T08:03:26.914Z,4.46
2023-03-15T08:04:30.040Z,4.50
2023-03-15T08:05:34.199Z,4.53
2023-03-15T08:06:37.015Z,4.54
2023-03-15T08:07:40.084Z,4.55
2023-03-15T08:08:42.918Z,4.55
2023-03-15T08:09:46.371Z,4.58
2023-03-15T08:10:49.703Z,4.61
2023-03-15T08:11:52.683Z,4.63
2023-03-15T08:12:55.603Z,4.63
2023-03-15T08:13:58.523Z,4.62
2023-03-15T08:15:01.290Z,4.61
2023-03-15T08:16:04.689Z,4.61
2023-03-15T08:17:12.450Z,4.60
2023-03-15T08:18:15.363Z,4.60
2023-03-15T08:19:18.871Z,4.60
2023-03-15T08:20:22.534Z,4.60
2023-03-15T08:21:25.394Z,4.61
2023-03-15T08:22:28.321Z,4.65
2023-03-15T08:23:31.319Z,4.70
2023-03-15T08:24:35.078Z,4.75
2023-03-15T08:25:40.978Z,4.79
2023-03-15T08:26:44.072Z,4.81
2023-03-15T08:27:48.126Z,4.85
2023-03-15T08:28:50.949Z,4.87
2023-03-15T08:29:53.857Z,4.89
2023-03-15T08:30:56.760Z,4.88
2023-03-15T08:31:59.660Z,4.88
2023-03-15T08:33:03.773Z,4.87
2023-03-15T08:34:07.477Z,4.85
2023-03-15T08:35:15.478Z,4.84
2023-03-15T08:36:19.739Z,4.83
2023-03-15T08:37:22.769Z,4.83
2023-03-15T08:38:26.316Z,4.82
2023-03-15T08:39:29.227Z,4.81
2023-03-15T08:40:32.146Z,4.78
2023-03-15T08:41:35.419Z,4.74
2023-03-15T08:42:38.742Z,4.74
2023-03-15T08:43:41.635Z,4.75
2023-03-15T08:44:44.425Z,4.79
2023-03-15T08:46:00.160Z,4.82
2023-03-15T08:47:05.365Z,4.83
2023-03-15T08:48:08.269Z,4.83
2023-03-15T08:49:11.094Z,4.84
2023-03-15T08:50:16.507Z,4.86
2023-03-15T08:51:21.348Z,4.85
2023-03-15T08:52:24.234Z,4.86
2023-03-15T08:53:27.159Z,4.87
2023-03-15T08:54:30.024Z,4.89
2023-03-15T08:55:33.031Z,4.90
2023-03-15T08:56:36.076Z,4.94
2023-03-15T08:57:39.423Z,4.97
2023-03-15T08:58:42.485Z,5.01
2023-03-15T08:59:45.720Z,5.07
2023-03-15T09:00:51.572Z,5.11
2023-03-15T09:01:54.441Z,5.15
2023-03-15T09:02:57.355Z,5.18
2023-03-15T09:04:01.368Z,5.21
2023-03-15T09:05:07.140Z,5.24
2023-03-15T09:06:10.514Z,5.25
2023-03-15T09:07:13.869Z,5.29
2023-03-15T09:08:21.019Z,5.32
2023-03-15T09:09:23.894Z,5.37
2023-03-15T09:10:26.834Z,5.41
2023-03-15T09:11:29.719Z,5.45
2023-03-15T09:12:32.569Z,5.47
2023-03-15T09:13:35.433Z,5.50
2023-03-15T09:14:38.406Z,5.52
2023-03-15T09:15:41.256Z,5.48
2023-03-15T09:16:44.307Z,5.45
2023-03-15T09:17:50.309Z,5.43
2023-03-15T09:18:53.263Z,5.44
2023-03-15T09:19:59.391Z,5.41
2023-03-15T09:21:02.329Z,5.39
2023-03-15T09:22:16.270Z,5.36
2023-03-15T09:23:26.524Z,5.34
2023-03-15T09:24:29.599Z,5.34
2023-03-15T09:25:32.755Z,5.38
2023-03-15T09:26:35.560Z,5.43
2023-03-15T09:27:38.578Z,5.50
2023-03-15T09:28:41.479Z,5.58
2023-03-15T09:29:44.280Z,5.66
2023-03-15T09:30:47.185Z,5.67
2023-03-15T09:31:50.082Z,5.66
2023-03-15T09:32:53.226Z,5.66
2023-03-15T09:33:56.817Z,5.70
2023-03-15T09:34:59.656Z,5.76
2023-03-15T09:36:02.709Z,5.83
2023-03-15T09:37:05.520Z,5.88
2023-03-15T09:38:09.064Z,5.91
2023-03-15T09:39:12.050Z,5.92
2023-03-15T09:40:18.015Z,5.94
2023-03-15T09:41:56.691Z,5.96
2023-03-15T09:43:14.340Z,5.95
2023-03-15T09:44:19.985Z,6.01
2023-03-15T09:45:41.675Z,6.09
2023-03-15T09:46:50.239Z,6.17
2023-03-15T09:48:08.122Z,6.22
2023-03-15T09:49:41.368Z,6.28
2023-03-15T09:50:54.268Z,6.40
2023-03-15T09:52:14.594Z,6.46
2023-03-15T09:53:17.776Z,6.50
2023-03-15T09:54:28.838Z,6.49
2023-03-15T09:55:32.439Z,6.48
2023-03-15T09:57:09.507Z,6.47
2023-03-15T09:58:19.407Z,6.45
2023-03-15T09:59:30.144Z,6.45
2023-03-15T10:00:41.482Z,6.44
2023-03-15T10:01:45.827Z,6.45
2023-03-15T10:03:02.310Z,6.43
2023-03-15T10:04:16.824Z,6.39
2023-03-15T10:05:32.196Z,6.39
2023-03-15T10:06:38.040Z,6.40
2023-03-15T10:07:41.326Z,6.44
2023-03-15T10:08:46.947Z,6.52
2023-03-15T10:09:50.040Z,6.65
2023-03-15T10:11:08.811Z,6.75
2023-03-15T10:12:17.176Z,6.83
2023-03-15T10:13:50.970Z,6.86
2023-03-15T10:15:31.615Z,6.91
2023-03-15T10:16:48.970Z,6.93
2023-03-15T10:18:05.637Z,6.92
2023-03-15T10:19:22.998Z,6.89
2023-03-15T10:20:34.237Z,6.90
2023-03-15T10:21:44.182Z,6.92
2023-03-15T10:22:51.276Z,6.90
2023-03-15T10:23:55.031Z,6.90
2023-03-15T10:25:26.402Z,6.88
2023-03-15T10:26:36.390Z,6.87
2023-03-15T10:27:52.000Z,6.89
2023-03-15T10:28:55.387Z,6.95
2023-03-15T10:30:00.089Z,7.01
2023-03-15T10:31:22.368Z,7.05
2023-03-15T10:32:34.438Z,7.13
2023-03-15T10:33:39.016Z,7.12
2023-03-15T10:34:41.908Z,7.12
2023-03-15T10:35:45.203Z,7.10
2023-03-15T10:36:50.235Z,7.03
2023-03-15T10:37:56.135Z,6.96
2023-03-15T10:38:58.934Z,6.90
2023-03-15T10:40:01.798Z,6.83
2023-03-15T10:41:06.348Z,6.77
2023-03-15T10:42:25.061Z,6.72
2023-03-15T10:43:32.041Z,6.72
2023-03-15T10:44:37.940Z,6.72
2023-03-15T10:45:40.819Z,6.72
2023-03-15T10:47:04.645Z,6.73
2023-03-15T10:48:13.843Z,6.73
2023-03-15T10:49:16.885Z,6.70
2023-03-15T10:50:37.002Z,6.65
2023-03-15T10:51:45.892Z,6.62
2023-03-15T10:52:51.274Z,6.62
2023-03-15T10:53:57.459Z,6.62
2023-03-15T10:55:04.973Z,6.63
2023-03-15T10:56:21.221Z,6.62
2023-03-15T10:57:28.720Z,6.62
2023-03-15T10:59:01.679Z,6.60
2023-03-15T11:00:37.710Z,6.52
2023-03-15T11:01:40.779Z,6.47
2023-03-15T11:03:03.240Z,6.45
2023-03-15T11:04:09.146Z,6.41
2023-03-15T11:05:14.639Z,6.34
2023-03-15T11:06:26.151Z,6.32
2023-03-15T11:07:29.276Z,6.31
2023-03-15T11:08:41.238Z,6.29
2023-03-15T11:09:58.874Z,6.28
2023-03-15T11:11:01.960Z,6.26
2023-03-15T11:12:07.729Z,6.24
2023-03-15T11:13:20.982Z,6.22
2023-03-15T11:14:25.326Z,6.24
2023-03-15T11:15:29.262Z,6.32
2023-03-15T11:16:37.742Z,6.43
2023-03-15T11:17:46.860Z,6.57
2023-03-15T11:19:01.586Z,6.71
2023-03-15T11:20:19.989Z,6.87
2023-03-15T11:21:33.658Z,7.04
2023-03-15T11:22:36.521Z,7.16
2023-03-15T11:23:46.052Z,7.24
2023-03-15T11:24:49.452Z,7.36
2023-03-15T11:25:54.080Z,7.46
2023-03-15T11:27:03.791Z,7.57
2023-03-15T11:28:11.058Z,7.70
2023-03-15T11:29:24.861Z,7.82
2023-03-15T11:30:31.408Z,7.98
2023-03-15T11:31:35.847Z,8.13
2023-03-15T11:32:39.821Z,8.24
2023-03-15T11:33:53.751Z,8.31
2023-03-15T11:35:33.527Z,8.32
2023-03-15T11:36:41.431Z,8.23
2023-03-15T11:38:03.165Z,8.14
2023-03-15T11:39:18.184Z,8.06
2023-03-15T11:40:23.173Z,8.05
2023-03-15T11:41:51.586Z,8.00
2023-03-15T11:42:59.916Z,7.87
2023-03-15T11:44:28.782Z,7.75
2023-03-15T11:45:58.544Z,7.69
2023-03-15T11:47:53.036Z,7.80
2023-03-15T11:49:19.426Z,8.09
2023-03-15T11:50:22.537Z,8.17
2023-03-15T11:51:25.492Z,8.19
2023-03-15T11:52:29.768Z,8.28
2023-03-15T11:53:38.642Z,8.32
2023-03-15T11:54:41.546Z,8.44
2023-03-15T11:55:50.331Z,8.61
2023-03-15T11:57:01.507Z,8.77
2023-03-15T11:58:28.167Z,8.97
2023-03-15T11:59:33.792Z,9.24
2023-03-15T12:00:37.880Z,9.33
2023-03-15T12:01:54.953Z,9.35
2023-03-15T12:03:19.503Z,9.39
2023-03-15T12:04:25.763Z,9.48
2023-03-15T12:05:45.721Z,9.55
2023-03-15T12:06:48.784Z,9.55
2023-03-15T12:07:59.429Z,9.58
2023-03-15T12:09:24.819Z,9.63
2023-03-15T12:10:33.182Z,9.80
2023-03-15T12:11:38.714Z,9.89
2023-03-15T12:12:46.354Z,9.95
2023-03-15T12:14:25.509Z,10.03
2023-03-15T12:15:28.352Z,10.29
2023-03-15T12:16:39.239Z,10.55
2023-03-15T12:17:49.960Z,10.84
2023-03-15T12:18:54.282Z,11.08
2023-03-15T12:20:21.406Z,11.13
2023-03-15T12:21:38.882Z,11.04
2023-03-15T12:22:48.417Z,10.98
2023-03-15T12:24:03.919Z,10.80
2023-03-15T12:25:15.438Z,10.55
2023-03-15T12:26:27.034Z,10.25
2023-03-15T12:27:30.733Z,10.02
2023-03-15T12:29:08.997Z,10.00
2023-03-15T12:30:23.561Z,10.03
2023-03-15T12:31:42.272Z,10.17
2023-03-15T12:32:50.497Z,10.40
2023-03-15T12:33:58.564Z,10.69
2023-03-15T12:35:16.156Z,10.97
2023-03-15T12:36:32.196Z,11.34
2023-03-15T12:37:37.963Z,11.66
2023-03-15T12:38:41.940Z,11.94
2023-03-15T12:39:48.257Z,12.08
2023-03-15T12:40:52.819Z,12.22
2023-03-15T12:41:55.696Z,12.38
2023-03-15T12:43:03.243Z,12.56
2023-03-15T12:44:18.683Z,12.74
2023-03-15T12:45:27.592Z,12.86
2023-03-15T12:46:36.854Z,12.98
2023-03-15T12:47:52.163Z,13.19
2023-03-15T12:49:12.164Z,13.40
2023-03-15T12:50:45.878Z,13.58
2023-03-15T12:51:59.598Z,13.76
2023-03-15T12:53:13.194Z,13.83
2023-03-15T12:54:16.425Z,13.89
2023-03-15T12:55:19.675Z,13.80
2023-03-15T12:56:32.783Z,13.52
2023-03-15T12:57:56.450Z,13.09
2023-03-15T12:59:05.778Z,12.76
2023-03-15T13:00:18.739Z,12.66
2023-03-15T13:01:25.718Z,12.66
2023-03-15T13:02:42.140Z,12.69
2023-03-15T13:03:46.347Z,12.83
2023-03-15T13:04:49.718Z,12.97
2023-03-15T13:06:06.127Z,13.17
2023-03-15T13:07:48.957Z,13.39
2023-03-15T13:09:00.996Z,13.52
2023-03-15T13:10:27.061Z,13.34
2023-03-15T13:11:43.240Z,13.36
2023-03-15T13:13:00.726Z,13.40
2023-03-15T13:14:33.530Z,13.57
2023-03-15T13:15:55.800Z,13.70
2023-03-15T13:17:17.371Z,13.88
2023-03-15T13:18:24.705Z,13.98
2023-03-15T13:19:32.966Z,13.94
2023-03-15T13:21:21.191Z,13.85
2023-03-15T13:22:54.955Z,13.72
2023-03-15T13:23:59.865Z,13.82
2023-03-15T13:25:16.162Z,13.84
2023-03-15T13:26:48.915Z,13.79
2023-03-15T13:27:58.914Z,13.70
2023-03-15T13:29:22.500Z,13.53
2023-03-15T13:30:28.129Z,13.27
2023-03-15T13:31:31.750Z,12.93
2023-03-15T13:32:35.388Z,12.54
2023-03-15T13:33:38.645Z,12.21
2023-03-15T13:34:44.639Z,12.06
2023-03-15T13:35:55.314Z,12.10
2023-03-15T13:37:00.316Z,12.08
2023-03-15T13:38:22.331Z,11.97
2023-03-15T13:39:28.193Z,11.82
2023-03-15T13:40:31.327Z,11.76
2023-03-15T13:41:34.252Z,11.86
2023-03-15T13:42:41.194Z,11.97
2023-03-15T13:43:44.942Z,12.08
2023-03-15T13:45:03.455Z,12.16
2023-03-15T13:46:06.430Z,12.04
2023-03-15T13:47:09.618Z,11.81
2023-03-15T13:48:13.389Z,11.57
2023-03-15T13:49:17.393Z,11.37
2023-03-15T13:50:21.558Z,11.23
2023-03-15T13:51:31.855Z,11.05
2023-03-15T13:52:35.139Z,10.99
2023-03-15T13:53:49.781Z,11.16
2023-03-15T13:54:54.065Z,11.50
2023-03-15T13:55:57.282Z,11.75
2023-03-15T13:57:13.411Z,12.05
2023-03-15T13:58:16.554Z,12.41
2023-03-15T13:59:19.529Z,12.74
2023-03-15T14:00:23.469Z,12.84
2023-03-15T14:01:27.286Z,12.66
2023-03-15T14:02:55.168Z,12.69
2023-03-15T14:04:02.295Z,12.86
2023-03-15T14:05:09.531Z,13.05
2023-03-15T14:06:22.788Z,13.17
2023-03-15T14:07:28.013Z,13.29
2023-03-15T14:08:35.367Z,13.41
2023-03-15T14:09:39.971Z,13.57
2023-03-15T14:10:42.961Z,13.53
2023-03-15T14:11:45.880Z,13.47
2023-03-15T14:12:51.000Z,13.45
2023-03-15T14:13:59.592Z,13.52
2023-03-15T14:15:03.290Z,13.55
2023-03-15T14:16:14.192Z,13.48
2023-03-15T14:17:37.416Z,13.37
2023-03-15T14:18:43.071Z,13.36
2023-03-15T14:19:59.534Z,13.19
2023-03-15T14:21:08.484Z,12.98
2023-03-15T14:22:20.902Z,12.82
2023-03-15T14:23:27.135Z,12.99
2023-03-15T14:24:33.764Z,13.11
2023-03-15T14:25:37.224Z,13.22
2023-03-15T14:26:40.782Z,13.26
2023-03-15T14:27:44.152Z,13.15
2023-03-15T14:28:55.064Z,12.99
2023-03-15T14:30:01.568Z,12.80
2023-03-15T14:31:04.683Z,12.57
2023-03-15T14:32:24.421Z,12.30
2023-03-15T14:33:33.083Z,11.96
2023-03-15T14:34:44.616Z,11.68
2023-03-15T14:35:47.557Z,11.36
2023-03-15T14:36:54.213Z,11.12
2023-03-15T14:38:21.271Z,10.99
2023-03-15T14:39:28.848Z,10.86
2023-03-15T14:40:35.803Z,10.70
2023-03-15T14:41:38.747Z,10.52
2023-03-15T14:42:42.788Z,10.37
2023-03-15T14:43:46.613Z,10.25
2023-03-15T14:44:49.918Z,10.15
2023-03-15T14:45:54.159Z,10.05
2023-03-15T14:46:57.864Z,9.91
2023-03-15T14:48:08.565Z,9.76
2023-03-15T14:49:26.416Z,9.61
2023-03-15T14:50:34.360Z,9.44
2023-03-15T14:51:37.246Z,9.30
2023-03-15T14:52:40.383Z,9.14
2023-03-15T14:53:44.666Z,9.00
2023-03-15T14:54:49.894Z,8.89
2023-03-15T14:55:53.006Z,8.80
2023-03-15T14:56:57.672Z,8.70
2023-03-15T14:58:04.437Z,8.60
2023-03-15T14:59:31.979Z,8.45
2023-03-15T15:00:44.145Z,8.34
2023-03-15T15:01:51.804Z,8.27
2023-03-15T15:02:57.413Z,8.14
2023-03-15T15:04:03.238Z,8.04
2023-03-15T15:05:29.372Z,7.93
2023-03-15T15:06:32.834Z,7.76
2023-03-15T15:07:36.072Z,7.65
2023-03-15T15:08:42.240Z,7.53
2023-03-15T15:09:50.167Z,7.45
2023-03-15T15:10:57.015Z,7.37
2023-03-15T15:11:59.887Z,7.31
2023-03-15T15:13:07.340Z,7.24
2023-03-15T15:14:15.054Z,7.20